As Valentia — A8SO8 — position and weather

sailwx.info

Track history (hours):
 
Tides and Currents Weather Stations Pressure Air Temp Water Temp Dewpoint Dewpoint Depression Visibility Wind Speed Wind Dir Waves Ship Positions

As Valentia

Last reported at 2017-Jun-06 08:39 UTC. Time now 2017-Jun-24 10:38 UTC.
Position N 01°15' E 104°00'.
Warning: this ship's position is 18 days out of date.

Length 190 m; draft 12.8 m.

Type: Cargo ship. MMSI: 636091770.

Date/timePositionNaut miles runAvg speedWind from/ knotsBaromVisibWave heightAir tempDewpointWater temp
2017-Jun-06 08:39N 01°15' E 104°00'210.8
2017-Jun-06 08:30N 01°16' E 103°59'1 1.1
2017-Jun-06 07:09N 01°16' E 103°58'0 0.0
2017-Jun-06 06:45N 01°16' E 103°58'0 0.0
2017-Jun-06 06:22N 01°16' E 103°58'0 0.0
2017-Jun-06 05:15N 01°16' E 103°58'0 0.0
2017-Jun-06 04:27N 01°16' E 103°58'0 0.0
2017-Jun-06 04:00N 01°16' E 103°58'0 0.0
2017-Jun-06 03:30N 01°16' E 103°58'0 0.0
2017-Jun-06 03:00N 01°16' E 103°58'0 0.0
2017-Jun-06 01:09N 01°16' E 103°58'0 0.0
2017-Jun-06 00:57N 01°16' E 103°58'0 0.0
2017-Jun-06 00:21N 01°16' E 103°58'0 0.0
2017-Jun-05 23:58N 01°16' E 103°58'0 0.6
2017-Jun-05 23:30N 01°16' E 103°58'1 1.9
2017-Jun-05 23:00N 01°15' E 103°57'0 0.8
2017-Jun-05 22:30N 01°15' E 103°57'2 3.9
2017-Jun-05 21:59N 01°13' E 103°56'4 7.7
2017-Jun-05 21:30N 01°12' E 103°53'5 9.6
2017-Jun-05 20:59N 01°10' E 103°49'5 9.6
2017-Jun-05 20:30N 01°07' E 103°45'610.2
2017-Jun-05 19:58N 01°03' E 103°41'4 9.7
2017-Jun-05 19:30N 01°04' E 103°36'5 9.9
2017-Jun-05 18:59N 01°06' E 103°32'5 9.9
2017-Jun-05 18:29N 01°09' E 103°28'  
Track history (hours):
 
Tides and Currents Weather Stations Pressure Air Temp Water Temp Dewpoint Dewpoint Depression Visibility Wind Speed Wind Dir Waves Ship Positions

As Valentia

Last reported at 2017-Jun-06 08:39 UTC. Time now 2017-Jun-24 10:38 UTC.
Position N 01°15' E 104°00'.
Warning: this ship's position is 18 days out of date.

Length 190 m; draft 12.8 m.

Type: Cargo ship. MMSI: 636091770.

Date/timePositionNaut miles runAvg speedWind from/ knotsBaromVisibWave heightAir tempDewpointWater temp
2017-Jun-06 08:39N 01°15' E 104°00'210.8
2017-Jun-06 08:30N 01°16' E 103°59'1 1.1
2017-Jun-06 07:09N 01°16' E 103°58'0 0.0
2017-Jun-06 06:45N 01°16' E 103°58'0 0.0
2017-Jun-06 06:22N 01°16' E 103°58'0 0.0
2017-Jun-06 05:15N 01°16' E 103°58'0 0.0
2017-Jun-06 04:27N 01°16' E 103°58'0 0.0
2017-Jun-06 04:00N 01°16' E 103°58'0 0.0
2017-Jun-06 03:30N 01°16' E 103°58'0 0.0
2017-Jun-06 03:00N 01°16' E 103°58'0 0.0
2017-Jun-06 01:09N 01°16' E 103°58'0 0.0
2017-Jun-06 00:57N 01°16' E 103°58'0 0.0
2017-Jun-06 00:21N 01°16' E 103°58'0 0.0
2017-Jun-05 23:58N 01°16' E 103°58'0 0.6
2017-Jun-05 23:30N 01°16' E 103°58'1 1.9
2017-Jun-05 23:00N 01°15' E 103°57'0 0.8
2017-Jun-05 22:30N 01°15' E 103°57'2 3.9
2017-Jun-05 21:59N 01°13' E 103°56'4 7.7
2017-Jun-05 21:30N 01°12' E 103°53'5 9.6
2017-Jun-05 20:59N 01°10' E 103°49'5 9.6
2017-Jun-05 20:30N 01°07' E 103°45'610.2
2017-Jun-05 19:58N 01°03' E 103°41'4 9.7
2017-Jun-05 19:30N 01°04' E 103°36'5 9.9
2017-Jun-05 18:59N 01°06' E 103°32'5 9.9
2017-Jun-05 18:29N 01°09' E 103°28'  

Dump ship's entire track history